Latest Coastal Weather Observations for Coffs Harbour

IDN60701

Issued at 4:52 pm EDT Friday 6 March 2015 (issued every 10 minutes, with the page automatically refreshed every 10 minutes)

About coastal observations | Map of coastal stations | Coastal observations for NSW | Marine services | Other Formats
Station Details ID: 059040 Name: COFFS HARBOUR MO Lat: -30.31 Lon: 153.12 Height: 5.0 m
Data from the previous 72 hours. | See also: Recent months at Coffs Harbour
Date/Time
EDT
Temp

°C
Wind Pressure Rain
since 9am
mm
Weather Cloud Vis
km
Sea
Height
m
Swell
Dir
 
Speed
knots
Gust
knots
hPa Trend Height
m
Period
s
Dir
06/04:30pm 27.2 NE 14 19 - - 0.0 - - - - - - -
06/04:00pm 28.9 N 10 19 - - 0.0 - - - - - - -
06/03:30pm 28.1 N 14 20 - - 0.0 - - - - - - -
06/03:00pm 27.6 N 14 23 - - 0.0 - - - - - - -
06/02:36pm 27.8 N 16 26 - - 0.0 - - - - - - -
06/02:30pm 27.3 N 17 26 - - 0.0 - - - - - - -
06/02:08pm 27.4 N 15 25 - - 0.0 - - - - - - -
06/02:00pm 27.8 NNE 15 24 - - 0.0 - - - - - - -
06/01:30pm 26.8 N 16 22 - - 0.0 - - - - - - -
06/01:00pm 26.2 NE 17 22 - - 0.0 - - - - - - -
06/12:30pm 25.6 NE 15 18 - - 0.0 - - - - - - -
06/12:00pm 25.0 NE 14 16 - - 0.0 - - - - - - -
06/11:30am 24.4 NE 10 14 - - 0.0 - - - - - - -
06/11:00am 23.9 NE 8 12 - - 0.0 - - - - - - -
06/10:30am 24.3 NNE 3 6 - - 0.0 - - - - - - -
06/10:00am 22.9 S 4 6 - - 0.0 - - - - - - -
06/09:30am 22.7 W 6 8 - - 0.0 - - - - - - -
06/09:00am 21.6 W 7 9 - - 0.0 - - - - - - -
06/08:30am 21.2 WSW 6 8 - - 0.0 - - - - - - -
06/08:00am 20.7 WSW 7 9 - - 0.0 - - - - - - -
06/07:30am 19.9 WSW 5 7 - - 0.0 - - - - - - -
06/07:00am 19.5 WSW 6 7 - - 0.0 - - - - - - -
06/06:30am 19.5 WSW 6 7 - - 0.0 - - - - - - -
06/06:00am 19.8 SW 7 8 - - 0.0 - - - - - - -
06/05:30am 19.9 SW 6 7 - - 0.0 - - - - - - -
06/05:00am 20.0 WSW 5 7 - - 0.0 - - - - - - -
06/04:30am 20.1 SW 7 9 - - 0.0 - - - - - - -
06/04:00am 20.0 SW 7 10 - - 0.0 - - - - - - -
06/03:30am 19.9 WSW 9 13 - - 0.0 - - - - - - -
06/03:00am 20.0 SW 9 14 - - 0.0 - - - - - - -
06/02:30am 20.3 SW 9 12 - - 0.0 - - - - - - -
06/02:00am 20.6 SW 9 11 - - 0.0 - - - - - - -
06/01:30am 20.7 WSW 9 13 - - 0.0 - - - - - - -
06/01:00am 20.8 SW 9 12 - - 0.0 - - - - - - -
06/12:30am 20.8 WSW 10 16 - - 0.0 - - - - - - -
06/12:00am 20.8 SW 11 16 - - 0.0 - - - - - - -
 
Date/Time
EDT
Temp

°C
Wind Pressure Rain
since 9am
mm
Weather Cloud Vis
km
Sea
Height
m
Swell
Dir
 
Speed
knots
Gust
knots
hPa Trend Height
m
Period
s
Dir
05/11:30pm 22.2 SSW 17 25 - - 0.0 - - - - - - -
05/11:00pm 22.3 S 19 26 - - 0.0 - - - - - - -
05/10:30pm 22.7 S 19 27 - - 0.0 - - - - - - -
05/10:00pm 22.5 SSW 21 28 - - 0.0 - - - - - - -
05/09:45pm 22.5 SSW 17 28 - - 0.0 - - - - - - -
05/09:30pm 22.5 SSW 17 21 - - 0.0 - - - - - - -
05/09:00pm 23.3 SSW 19 27 - - 0.0 - - - - - - -
05/08:30pm 23.9 S 19 26 - - 0.0 - - - - - - -
05/08:00pm 24.2 S 19 26 - - 0.0 - - - - - - -
05/07:30pm 25.0 S 20 26 - - 0.0 - - - - - - -
05/07:00pm 25.6 S 18 23 - - 0.0 - - - - - - -
05/06:30pm 26.6 S 14 17 - - 0.0 - - - - - - -
05/06:00pm 27.6 S 10 15 - - 0.0 - - - - - - -
05/05:30pm 28.2 S 10 14 - - 0.0 - - - - - - -
05/05:00pm 28.9 S 8 10 - - 0.0 - - - - - - -
05/04:30pm 28.5 SSE 5 8 - - 0.0 - - - - - - -
05/04:00pm 29.3 SSE 6 8 - - 0.0 - - - - - - -
05/03:30pm 29.5 SE 9 13 - - 0.0 - - - - - - -
05/03:00pm 30.2 SE 13 18 - - 0.0 - - - - - - -
05/02:30pm 30.9 SSE 13 17 - - 0.0 - - - - - - -
05/02:00pm 32.0 SSE 13 17 - - 0.0 - - - - - - -
05/01:30pm 31.9 SSE 10 14 - - 0.0 - - - - - - -
05/01:00pm 32.4 SSE 11 15 - - 0.0 - - - - - - -
05/12:30pm 32.3 - - - - - 0.0 - - - - - - -
05/12:00pm 33.5 SSE 5 8 - - 0.0 - - - - - - -
05/11:30am 33.4 SSE 6 9 - - 0.0 - - - - - - -
05/11:00am 31.6 SSW 5 6 - - 0.0 - - - - - - -
05/10:30am 30.3 SW 6 6 - - 0.0 - - - - - - -
05/10:00am 30.0 SW 4 5 - - 0.0 - - - - - - -
05/09:30am 29.0 WNW 5 7 - - 0.0 - - - - - - -
05/09:00am 29.4 WNW 6 8 - - 0.0 - - - - - - -
05/08:30am 27.7 NW 7 8 - - 0.0 - - - - - - -
05/08:00am 26.7 NW 5 6 - - 0.0 - - - - - - -
05/07:30am 23.9 NNW 7 8 - - 0.0 - - - - - - -
05/07:00am 23.3 N 5 6 - - 0.0 - - - - - - -
05/06:30am 23.7 N 8 9 - - 0.0 - - - - - - -
05/06:00am 23.7 N 9 11 - - 0.0 - - - - - - -
05/05:30am 23.6 N 9 11 - - 0.0 - - - - - - -
05/05:00am 23.0 NNW 5 7 - - 0.0 - - - - - - -
05/04:30am 23.5 N 6 8 - - 0.0 - - - - - - -
05/04:00am 22.9 NNE 2 5 - - 0.0 - - - - - - -
05/03:30am 22.7 N 9 11 - - 0.0 - - - - - - -
05/03:00am 23.1 NNE 6 8 - - 0.0 - - - - - - -
05/02:30am 23.9 NE 7 8 - - 0.0 - - - - - - -
05/02:00am 23.9 NE 2 4 - - 0.0 - - - - - - -
05/01:30am 24.1 N 5 7 - - 0.0 - - - - - - -
05/01:00am 24.6 N 6 9 - - 0.0 - - - - - - -
05/12:30am 24.9 N 8 11 - - 0.0 - - - - - - -
05/12:00am 25.2 NNW 5 7 - - 0.0 - - - - - - -
 
Date/Time
EDT
Temp

°C
Wind Pressure Rain
since 9am
mm
Weather Cloud Vis
km
Sea
Height
m
Swell
Dir
 
Speed
knots
Gust
knots
hPa Trend Height
m
Period
s
Dir
04/11:30pm 24.9 NNE 8 12 - - 0.0 - - - - - - -
04/11:00pm 24.8 NNE 8 10 - - 0.0 - - - - - - -
04/10:30pm 24.7 NE 11 14 - - 0.0 - - - - - - -
04/10:00pm 24.5 NE 11 14 - - 0.0 - - - - - - -
04/09:30pm 24.6 NNE 14 18 - - 0.0 - - - - - - -
04/09:00pm 24.6 NNE 13 16 - - 0.0 - - - - - - -
04/08:30pm 24.8 NNE 14 18 - - 0.0 - - - - - - -
04/08:00pm 25.0 NNE 16 19 - - 0.0 - - - - - - -
04/07:30pm 25.2 NNE 15 20 - - 0.0 - - - - - - -
04/07:00pm 25.4 NNE 19 24 - - 0.0 - - - - - - -
04/06:30pm 25.6 NNE 18 23 - - 0.0 - - - - - - -
04/06:00pm 26.2 NNE 17 26 - - 0.0 - - - - - - -
04/05:30pm 25.8 NE 18 25 - - 0.0 - - - - - - -
04/05:00pm 26.4 NE 17 23 - - 0.0 - - - - - - -
04/04:30pm 26.1 NE 18 25 - - 0.0 - - - - - - -
04/04:00pm 26.5 NE 17 22 - - 0.0 - - - - - - -
04/03:30pm 27.7 NE 21 27 - - 0.0 - - - - - - -
04/03:00pm 27.0 NE 21 26 - - 0.0 - - - - - - -
04/02:30pm 27.2 NE 19 28 - - 0.0 - - - - - - -
04/02:00pm 27.7 NE 19 26 - - 0.0 - - - - - - -
04/01:30pm 27.2 NE 20 27 - - 0.0 - - - - - - -
04/01:00pm 27.7 NNE 20 26 - - 0.0 - - - - - - -
04/12:30pm 27.2 NE 18 23 - - 0.0 - - - - - - -
04/12:00pm 27.2 NE 17 24 - - 0.0 - - - - - - -
04/11:30am 27.0 NNE 17 22 - - 0.0 - - - - - - -
04/11:00am 27.3 NE 15 20 - - 0.0 - - - - - - -
04/10:30am 26.8 NNE 11 15 - - 0.0 - - - - - - -
04/10:00am 25.8 NE 10 13 - - 0.0 - - - - - - -
04/09:30am 25.4 NNE 5 7 - - 0.0 - - - - - - -
04/09:00am 24.5 NNE 3 5 - - 0.2 - - - - - - -
04/08:30am 23.4 SSW 3 5 - - 0.2 - - - - - - -
04/08:00am 23.0 NNW 5 7 - - 0.2 - - - - - - -
04/07:30am 21.3 N 7 8 - - 0.2 - - - - - - -
04/07:00am 19.8 NW 6 7 - - 0.2 - - - - - - -
04/06:30am 19.5 N 5 7 - - 0.2 - - - - - - -
04/06:00am 19.5 N 3 5 - - 0.2 - - - - - - -
04/05:30am 19.9 NW 8 10 - - 0.2 - - - - - - -
04/05:00am 20.0 NW 8 10 - - 0.2 - - - - - - -
04/04:30am 20.5 N 6 7 - - 0.2 - - - - - - -
04/04:00am 21.0 NNE 8 9 - - 0.2 - - - - - - -
04/03:30am 20.8 NNE 6 7 - - 0.2 - - - - - - -
04/03:00am 20.7 NNE 7 8 - - 0.2 - - - - - - -
04/02:30am 20.8 NNE 7 9 - - 0.2 - - - - - - -
04/02:00am 20.3 NNE 7 8 - - 0.2 - - - - - - -
04/01:30am 20.2 N 4 6 - - 0.2 - - - - - - -
04/01:00am 20.3 NNW 4 5 - - 0.2 - - - - - - -
04/12:30am 20.9 NNW 6 8 - - 0.2 - - - - - - -
04/12:00am 21.0 N 6 7 - - 0.2 - - - - - - -
 
Date/Time
EDT
Temp

°C
Wind Pressure Rain
since 9am
mm
Weather Cloud Vis
km
Sea
Height
m
Swell
Dir
 
Speed
knots
Gust
knots
hPa Trend Height
m
Period
s
Dir
03/11:30pm 20.5 NNW 6 7 - - 0.2 - - - - - - -
03/11:00pm 20.6 NNW 5 6 - - 0.2 - - - - - - -
03/10:30pm 20.6 N 4 4 - - 0.2 - - - - - - -
03/10:00pm 20.8 N 4 5 - - 0.2 - - - - - - -
03/09:30pm 21.1 N 3 4 - - 0.2 - - - - - - -
03/09:00pm 21.6 N 4 5 - - 0.2 - - - - - - -
03/08:30pm 22.0 NNE 5 6 - - 0.2 - - - - - - -
03/08:00pm 22.5 NE 6 7 - - 0.2 - - - - - - -
03/07:30pm 23.1 NE 7 9 - - 0.2 - - - - - - -
03/07:00pm 24.1 NE 7 9 - - 0.2 - - - - - - -
03/06:30pm 24.6 NE 7 9 - - 0.2 - - - - - - -
03/06:00pm 25.5 ENE 8 11 - - 0.2 - - - - - - -
03/05:30pm 25.9 NE 8 10 - - 0.2 - - - - - - -
03/05:00pm 26.1 NE 8 10 - - 0.2 - - - - - - -

Other Formats:

Comma delimited format used in spreadsheet applications
http://www.bom.gov.au/fwo/IDN60701/IDN60701.94791.axf

JavaScript Object Notation format (JSON) in row-major order
http://www.bom.gov.au/fwo/IDN60701/IDN60701.94791.json